Time;durP1;ratioP1;P1;durP2;ratioP2;P2;SDS_P1;SDS_P2;PMS_P1;PMS_P2;Temp;Humidity;BMP_temperature;BMP_pressure;BME280_temperature;BME280_humidity;BME280_pressure;Samples;Min_cycle;Max_cycle;Signal;HPM_P1;HPM_P2
2022/09/04 00:07:39;;;;;;;7.25;4.15;;;;;;;15.26;100.00;100319.56;20830630;28;20061;-69
2022/09/04 00:17:41;;;;;;;9.88;4.18;;;;;;;15.18;100.00;100332.16;20830362;28;20057;-68
2022/09/04 00:27:44;;;;;;;11.48;4.70;;;;;;;15.14;100.00;100325.31;20829732;28;20491;-68
2022/09/04 00:37:45;;;;;;;9.70;5.00;;;;;;;15.09;100.00;100338.66;20828201;28;20056;-68
2022/09/04 00:47:47;;;;;;;9.93;5.75;;;;;;;14.98;100.00;100348.69;20828443;28;20564;-68
2022/09/04 00:57:48;;;;;;;10.07;5.40;;;;;;;14.98;100.00;100356.59;20827227;28;20183;-69
2022/09/04 01:07:52;;;;;;;10.00;5.28;;;;;;;15.04;100.00;100351.13;20825160;28;20059;-69
2022/09/04 01:17:53;;;;;;;8.35;4.50;;;;;;;14.97;100.00;100375.97;20826309;28;20049;-68
2022/09/04 01:27:54;;;;;;;8.40;4.13;;;;;;;14.94;100.00;100378.69;20825609;28;20053;-68
2022/09/04 01:37:56;;;;;;;7.50;3.55;;;;;;;14.80;100.00;100386.22;20823422;28;20045;-69
2022/09/04 01:47:57;;;;;;;8.77;3.50;;;;;;;14.75;100.00;100391.63;20823877;28;20053;-69
2022/09/04 01:57:59;;;;;;;7.20;3.38;;;;;;;14.63;100.00;100386.78;20822422;28;20081;-69
2022/09/04 02:08:01;;;;;;;6.03;3.65;;;;;;;14.62;100.00;100385.06;20821496;28;20425;-69
2022/09/04 02:18:02;;;;;;;5.50;3.42;;;;;;;14.60;100.00;100385.09;20821129;28;20422;-69
2022/09/04 02:28:03;;;;;;;6.75;3.67;;;;;;;14.58;100.00;100386.94;20820476;28;20069;-69
2022/09/04 02:38:05;;;;;;;9.80;3.72;;;;;;;14.46;100.00;100395.19;20818358;28;20049;-70
2022/09/04 02:48:06;;;;;;;6.68;3.83;;;;;;;14.38;100.00;100402.50;20818813;28;20053;-69
2022/09/04 02:58:08;;;;;;;6.50;4.13;;;;;;;14.38;100.00;100413.03;20817353;28;20053;-70
2022/09/04 03:08:10;;;;;;;8.35;4.88;;;;;;;14.31;100.00;100406.22;20816913;28;20103;-69
2022/09/04 03:18:12;;;;;;;8.55;5.50;;;;;;;14.36;100.00;100415.69;20816710;28;20049;-70
2022/09/04 03:28:17;;;;;;;10.05;4.95;;;;;;;14.34;100.00;100421.94;20816346;28;20080;-69
2022/09/04 03:38:19;;;;;;;7.90;3.85;;;;;;;14.29;100.00;100422.06;20829505;28;20657;-70
2022/09/04 03:48:20;;;;;;;8.10;4.28;;;;;;;14.27;100.00;100413.34;20832600;28;20053;-71
2022/09/04 03:58:24;;;;;;;10.90;4.53;;;;;;;14.22;100.00;100428.41;20831670;28;20107;-70
2022/09/04 04:08:26;;;;;;;7.07;4.43;;;;;;;14.16;100.00;100433.00;20830152;28;20618;-70
2022/09/04 04:18:27;;;;;;;7.55;3.80;;;;;;;14.09;100.00;100438.47;20829625;28;20502;-70
2022/09/04 04:28:29;;;;;;;12.23;5.10;;;;;;;14.09;100.00;100458.69;20829213;28;20100;-70
2022/09/04 04:38:30;;;;;;;10.88;4.93;;;;;;;14.18;100.00;100476.84;20828043;28;20053;-70
2022/09/04 04:48:31;;;;;;;13.57;7.03;;;;;;;14.25;100.00;100477.50;20826729;28;20648;-69
2022/09/04 04:58:33;;;;;;;16.65;8.73;;;;;;;14.29;100.00;100487.91;20827325;28;20075;-69
2022/09/04 05:08:34;;;;;;;17.38;9.57;;;;;;;14.42;100.00;100495.44;20826387;28;20061;-70
2022/09/04 05:18:36;;;;;;;21.80;10.05;;;;;;;14.53;100.00;100512.69;20824868;28;20103;-69
2022/09/04 05:28:38;;;;;;;16.38;8.95;;;;;;;14.79;100.00;100518.94;20824638;28;20445;-69
2022/09/04 05:38:39;;;;;;;13.55;8.07;;;;;;;14.89;100.00;100546.72;20823616;28;20061;-69
2022/09/04 05:48:41;;;;;;;11.80;7.45;;;;;;;15.10;100.00;100569.78;20823616;28;20491;-69
2022/09/04 05:58:42;;;;;;;13.02;7.25;;;;;;;15.19;100.00;100578.31;20821961;28;20390;-69
2022/09/04 06:08:43;;;;;;;9.65;6.72;;;;;;;15.17;100.00;100586.28;20821805;28;20055;-69
2022/09/04 06:18:45;;;;;;;8.38;5.35;;;;;;;15.29;100.00;100585.91;20820447;28;20049;-69
2022/09/04 06:28:46;;;;;;;8.98;5.80;;;;;;;15.78;100.00;100596.66;20819943;28;20056;-69
2022/09/04 06:38:47;;;;;;;10.23;7.00;;;;;;;15.75;100.00;100617.84;20819156;28;20053;-69
2022/09/04 06:48:49;;;;;;;11.80;7.00;;;;;;;15.85;100.00;100619.28;20818668;28;20049;-68
2022/09/04 06:58:50;;;;;;;9.40;6.38;;;;;;;16.11;100.00;100621.88;20818494;28;20046;-69
2022/09/04 07:08:51;;;;;;;10.00;7.45;;;;;;;16.43;100.00;100622.50;20817154;28;20045;-68
2022/09/04 07:18:53;;;;;;;10.57;7.40;;;;;;;16.83;100.00;100631.66;20817640;28;20417;-68
2022/09/04 07:28:54;;;;;;;14.75;7.93;;;;;;;17.23;100.00;100649.47;20817493;28;20061;-69
2022/09/04 07:38:56;;;;;;;12.73;7.57;;;;;;;17.60;100.00;100651.53;20817077;28;20716;-68
2022/09/04 07:48:57;;;;;;;11.82;7.22;;;;;;;17.80;100.00;100661.34;20816492;28;20072;-68
2022/09/04 07:58:59;;;;;;;10.80;6.68;;;;;;;17.95;100.00;100662.47;20816525;28;20053;-68
2022/09/04 08:09:00;;;;;;;9.95;6.75;;;;;;;18.12;100.00;100669.72;20815571;28;20056;-68
2022/09/04 08:19:02;;;;;;;11.10;6.10;;;;;;;18.49;100.00;100682.22;20819981;28;20050;-68
2022/09/04 08:29:03;;;;;;;11.38;6.20;;;;;;;18.96;100.00;100695.19;20830646;28;20045;-68
2022/09/04 08:39:04;;;;;;;6.78;4.53;;;;;;;19.20;100.00;100702.03;20828779;28;20057;-68
2022/09/04 08:49:09;;;;;;;5.65;4.18;;;;;;;19.56;100.00;100700.38;20828142;28;20144;-68
2022/09/04 08:59:10;;;;;;;7.28;3.42;;;;;;;19.86;100.00;100713.97;20827940;28;20049;-68
2022/09/04 09:09:12;;;;;;;6.82;3.58;;;;;;;20.24;100.00;100707.59;20826677;28;20506;-68
2022/09/04 09:19:13;;;;;;;19.50;9.98;;;;;;;20.47;100.00;100711.78;20826468;28;20060;-68
2022/09/04 09:29:15;;;;;;;6.82;3.60;;;;;;;21.14;100.00;100704.66;20825393;28;20103;-68
2022/09/04 09:39:16;;;;;;;5.35;2.80;;;;;;;21.35;100.00;100705.31;20824226;28;20050;-68
2022/09/04 09:49:17;;;;;;;6.75;2.88;;;;;;;21.65;100.00;100692.06;20823967;28;20502;-68
2022/09/04 09:59:19;;;;;;;25.08;17.92;;;;;;;21.99;100.00;100679.44;20823192;28;20065;-68
2022/09/04 10:09:20;;;;;;;7.03;4.07;;;;;;;22.51;100.00;100676.34;20821946;28;20068;-68
2022/09/04 10:19:21;;;;;;;6.30;2.80;;;;;;;22.95;100.00;100675.47;20820469;28;20060;-68
2022/09/04 10:29:25;;;;;;;4.47;2.50;;;;;;;23.04;96.53;100666.84;20820810;28;20132;-68
2022/09/04 10:49:46;;;;;;;3.33;1.92;;;;;;;23.61;87.00;100657.84;20818977;28;20077;-68
2022/09/04 10:59:47;;;;;;;4.90;1.80;;;;;;;23.57;79.03;100662.53;20819825;28;20046;-68
2022/09/04 11:09:49;;;;;;;6.45;2.33;;;;;;;23.36;80.70;100663.94;20817742;28;20469;-68
2022/09/04 11:19:50;;;;;;;3.05;1.70;;;;;;;22.93;81.91;100650.66;20818127;28;20042;-68
2022/09/04 11:29:54;;;;;;;3.72;1.35;;;;;;;23.57;76.47;100646.50;20818049;28;20057;-68
2022/09/04 11:39:56;;;;;;;2.72;1.70;;;;;;;23.80;57.28;100642.31;20816082;28;20072;-68
2022/09/04 11:49:57;;;;;;;3.42;1.55;;;;;;;24.00;59.01;100638.31;20816395;28;20136;-68
2022/09/04 11:59:59;;;;;;;5.15;1.88;;;;;;;24.28;56.16;100638.13;20831299;28;20176;-69
2022/09/04 12:10:00;;;;;;;2.30;1.33;;;;;;;24.16;55.78;100639.00;20830763;28;20065;-68
2022/09/04 12:20:04;;;;;;;3.03;1.38;;;;;;;23.72;56.29;100650.88;20830971;28;20041;-69
2022/09/04 12:30:08;;;;;;;2.75;1.50;;;;;;;23.55;55.22;100643.06;20830081;28;20073;-69
2022/09/04 12:40:09;;;;;;;5.63;1.70;;;;;;;23.58;53.57;100637.53;20829174;28;20406;-69
2022/09/04 12:50:14;;;;;;;2.53;1.20;;;;;;;24.26;51.90;100637.38;20828134;28;20058;-69
2022/09/04 13:00:16;;;;;;;3.33;1.40;;;;;;;24.31;50.56;100635.25;20827654;28;20049;-69
2022/09/04 13:10:17;;;;;;;2.10;1.17;;;;;;;24.35;49.41;100643.06;20826524;28;20454;-69
2022/09/04 13:20:19;;;;;;;3.10;1.30;;;;;;;24.57;49.89;100644.16;20825789;28;20057;-69
2022/09/04 13:30:22;;;;;;;2.70;1.20;;;;;;;24.35;49.05;100643.06;20825179;28;20726;-69
2022/09/04 13:40:24;;;;;;;3.00;1.30;;;;;;;24.16;49.05;100644.34;20824875;28;20111;-68
2022/09/04 13:50:26;;;;;;;2.42;1.30;;;;;;;23.97;49.62;100634.03;20823707;28;20312;-68
2022/09/04 14:00:27;;;;;;;3.85;1.33;;;;;;;24.23;51.01;100628.72;20822455;28;20107;-69
2022/09/04 14:10:29;;;;;;;3.78;1.42;;;;;;;24.42;49.42;100622.97;20822303;28;20045;-69
2022/09/04 14:20:32;;;;;;;2.70;1.40;;;;;;;25.03;46.80;100624.81;20818554;28;20053;-68
2022/09/04 14:30:34;;;;;;;2.08;1.23;;;;;;;25.06;46.50;100618.41;20820381;28;20136;-69
2022/09/04 14:40:35;;;;;;;2.55;1.30;;;;;;;25.13;48.49;100629.53;20820247;28;20057;-69
2022/09/04 14:50:36;;;;;;;2.00;1.10;;;;;;;24.81;48.44;100630.00;20819501;28;20041;-69
2022/09/04 15:00:38;;;;;;;1.80;1.30;;;;;;;24.66;49.95;100613.19;20818775;28;20573;-68
2022/09/04 15:10:39;;;;;;;3.67;1.25;;;;;;;24.55;50.12;100613.13;20818519;28;20063;-69
2022/09/04 15:20:40;;;;;;;2.25;1.20;;;;;;;24.68;48.07;100613.97;20817326;28;20510;-69
2022/09/04 15:30:42;;;;;;;3.47;1.27;;;;;;;24.80;47.10;100609.53;20831877;28;20052;-69
2022/09/04 15:40:45;;;;;;;;;;;;;;;24.86;45.50;100616.28;20845275;28;20037;-69
2022/09/04 15:51:07;;;;;;;3.08;1.33;;;;;;;25.08;43.26;100611.97;20845296;28;20325;-69
2022/09/04 16:01:10;;;;;;;4.35;1.20;;;;;;;25.05;45.39;100611.28;20843470;28;20049;-69
2022/09/04 16:11:17;;;;;;;2.40;1.20;;;;;;;24.71;46.81;100600.34;20879590;28;20507;-69
2022/09/04 16:21:20;;;;;;;3.13;1.70;;;;;;;24.94;46.71;100597.84;20859551;28;20052;-69
2022/09/04 16:31:21;;;;;;;2.22;1.00;;;;;;;24.75;47.87;100588.44;20916762;28;20060;-70
2022/09/04 16:41:25;;;;;;;2.90;1.25;;;;;;;24.81;46.86;100588.00;20862240;28;20485;-70
2022/09/04 16:51:27;;;;;;;4.47;1.33;;;;;;;24.52;48.34;100578.53;20821234;28;20433;-69
2022/09/04 17:01:41;;;;;;;2.45;1.63;;;;;;;24.30;48.70;100563.97;20820118;28;20100;-69
2022/09/04 17:11:43;;;;;;;2.50;1.40;;;;;;;23.89;51.71;100571.31;20826140;28;20055;-69
2022/09/04 17:32:35;;;;;;;5.68;1.70;;;;;;;23.28;59.79;100571.81;20900613;28;20106;-69
2022/09/04 17:42:59;;;;;;;3.35;1.45;;;;;;;22.45;63.57;100580.69;20899975;28;20053;-69
2022/09/04 17:53:20;;;;;;;4.00;1.52;;;;;;;22.05;65.65;100599.09;20898116;28;20352;-69
2022/09/04 18:03:34;;;;;;;6.43;1.80;;;;;;;21.67;69.92;100593.38;20897082;28;20051;-69
2022/09/04 18:13:41;;;;;;;4.05;1.90;;;;;;;21.42;72.88;100617.94;20863104;28;20081;-69
2022/09/04 18:23:42;;;;;;;5.82;2.13;;;;;;;20.93;72.90;100625.97;20813676;28;20108;-69
2022/09/04 18:33:52;;;;;;;3.55;1.67;;;;;;;20.63;74.71;100637.34;20812084;28;20064;-69
2022/09/04 18:44:13;;;;;;;5.93;2.47;;;;;;;20.50;77.13;100652.22;20813342;28;20045;-69
2022/09/04 18:54:40;;;;;;;4.65;2.13;;;;;;;20.15;80.78;100662.00;20812318;28;20041;-69
2022/09/04 19:04:42;;;;;;;5.55;2.80;;;;;;;19.95;85.56;100665.69;20807953;28;20050;-69
2022/09/04 19:14:43;;;;;;;5.88;2.80;;;;;;;19.66;90.08;100670.66;20852004;28;20498;-70
2022/09/04 19:24:47;;;;;;;5.75;2.63;;;;;;;19.48;90.99;100676.81;20892029;28;20482;-70
2022/09/04 19:34:49;;;;;;;;;;;;;;;19.29;99.83;100675.97;20892119;28;20060;-70
2022/09/04 19:44:50;;;;;;;6.20;2.90;;;;;;;19.02;100.00;100676.34;20891759;28;20344;-69
2022/09/04 19:55:12;;;;;;;7.28;2.75;;;;;;;18.86;100.00;100662.91;20891747;28;20049;-69
2022/09/04 20:05:25;;;;;;;9.95;2.72;;;;;;;18.54;100.00;100672.31;20889975;28;20425;-68
2022/09/04 20:15:27;;;;;;;6.68;2.35;;;;;;;18.22;100.00;100665.75;20847959;28;20041;-68
2022/09/04 20:25:31;;;;;;;6.43;3.40;;;;;;;18.04;100.00;100675.34;20823251;28;20080;-69
2022/09/04 20:35:33;;;;;;;5.28;2.95;;;;;;;17.92;100.00;100667.94;20822032;28;20560;-68
2022/09/04 20:45:34;;;;;;;4.93;2.70;;;;;;;17.65;100.00;100670.75;20821050;28;20058;-68
2022/09/04 20:55:55;;;;;;;6.38;3.10;;;;;;;17.50;100.00;100681.94;20820906;28;20057;-68
2022/09/04 21:05:57;;;;;;;7.00;2.45;;;;;;;17.18;100.00;100686.72;20819283;28;20053;-69
2022/09/04 21:16:08;;;;;;;6.43;3.30;;;;;;;17.12;100.00;100692.25;20872451;28;20550;-67
2022/09/04 21:26:09;;;;;;;6.13;3.20;;;;;;;17.08;100.00;100698.56;20899702;28;20625;-67
2022/09/04 21:36:10;;;;;;;7.55;3.47;;;;;;;17.03;100.00;100705.81;20899045;28;20126;-67
2022/09/04 21:46:27;;;;;;;7.95;3.70;;;;;;;16.93;100.00;100712.38;20900056;28;20048;-67
2022/09/04 21:56:29;;;;;;;6.50;3.67;;;;;;;16.90;100.00;100718.63;20898198;28;20143;-67
2022/09/04 22:06:51;;;;;;;6.97;3.47;;;;;;;16.73;100.00;100722.81;20842100;28;20050;-67
2022/09/04 22:17:12;;;;;;;6.82;3.78;;;;;;;16.55;100.00;100717.22;20821517;28;20187;-67
2022/09/04 22:27:14;;;;;;;8.50;3.80;;;;;;;16.62;100.00;100720.50;20821124;28;20056;-67
2022/09/04 22:37:16;;;;;;;12.60;3.97;;;;;;;16.55;100.00;100727.81;20820181;28;20053;-67
2022/09/04 22:47:26;;;;;;;8.07;4.10;;;;;;;16.47;100.00;100732.47;20819753;28;20048;-68
2022/09/04 22:57:28;;;;;;;10.07;3.75;;;;;;;16.45;100.00;100736.97;20819411;28;20053;-67
2022/09/04 23:07:29;;;;;;;10.13;3.80;;;;;;;16.23;100.00;100733.31;20818593;28;20052;-67
2022/09/04 23:17:50;;;;;;;7.57;4.20;;;;;;;15.99;100.00;100733.22;20817547;28;20064;-67
2022/09/04 23:28:12;;;;;;;6.57;4.18;;;;;;;16.00;100.00;100736.72;20803662;28;20445;-68
2022/09/04 23:38:28;;;;;;;9.25;4.18;;;;;;;16.02;100.00;100727.84;20817053;28;20042;-67
2022/09/04 23:48:30;;;;;;;11.25;4.57;;;;;;;15.96;100.00;100722.78;20818997;28;20041;-67
